sensor_id;sensor_type;location;lat;lon;timestamp;pressure;altitude;pressure_sealevel;temperature;humidity
11525;BME280;5819;49.648;8.330;2022-07-25T00:02:09;100029.34;;;22.54;61.89
11525;BME280;5819;49.648;8.330;2022-07-25T00:04:39;100028.66;;;22.52;62.03
11525;BME280;5819;49.648;8.330;2022-07-25T00:07:08;100028.28;;;22.47;62.51
11525;BME280;5819;49.648;8.330;2022-07-25T00:09:36;100016.69;;;22.48;61.66
11525;BME280;5819;49.648;8.330;2022-07-25T00:12:06;100014.34;;;22.45;62.13
11525;BME280;5819;49.648;8.330;2022-07-25T00:14:36;100009.56;;;22.48;62.13
11525;BME280;5819;49.648;8.330;2022-07-25T00:17:04;100009.50;;;22.58;62.42
11525;BME280;5819;49.648;8.330;2022-07-25T00:19:32;100023.16;;;22.35;61.72
11525;BME280;5819;49.648;8.330;2022-07-25T00:22:00;100011.00;;;22.15;61.80
11525;BME280;5819;49.648;8.330;2022-07-25T00:24:29;100009.72;;;21.92;62.70
11525;BME280;5819;49.648;8.330;2022-07-25T00:26:57;100000.50;;;21.96;62.93
11525;BME280;5819;49.648;8.330;2022-07-25T00:29:26;100004.91;;;21.68;63.10
11525;BME280;5819;49.648;8.330;2022-07-25T00:31:54;99996.09;;;21.77;64.04
11525;BME280;5819;49.648;8.330;2022-07-25T00:34:22;100000.75;;;21.56;64.18
11525;BME280;5819;49.648;8.330;2022-07-25T00:36:50;99993.47;;;21.68;63.83
11525;BME280;5819;49.648;8.330;2022-07-25T00:39:18;99989.25;;;21.75;64.27
11525;BME280;5819;49.648;8.330;2022-07-25T00:41:47;99990.78;;;21.77;63.10
11525;BME280;5819;49.648;8.330;2022-07-25T00:44:22;99988.09;;;21.87;63.86
11525;BME280;5819;49.648;8.330;2022-07-25T00:46:52;99984.78;;;21.85;63.99
11525;BME280;5819;49.648;8.330;2022-07-25T00:49:20;99982.44;;;21.72;63.79
11525;BME280;5819;49.648;8.330;2022-07-25T00:51:49;99980.94;;;21.60;64.46
11525;BME280;5819;49.648;8.330;2022-07-25T00:54:18;99975.88;;;21.76;63.88
11525;BME280;5819;49.648;8.330;2022-07-25T00:56:46;99969.19;;;21.82;63.53
11525;BME280;5819;49.648;8.330;2022-07-25T00:59:15;99969.19;;;21.82;63.39
11525;BME280;5819;49.648;8.330;2022-07-25T01:01:44;99960.22;;;21.83;63.06
11525;BME280;5819;49.648;8.330;2022-07-25T01:04:16;99954.25;;;21.81;63.01
11525;BME280;5819;49.648;8.330;2022-07-25T01:06:44;99956.09;;;21.71;63.45
11525;BME280;5819;49.648;8.330;2022-07-25T01:09:12;99956.81;;;21.63;64.12
11525;BME280;5819;49.648;8.330;2022-07-25T01:11:40;99949.66;;;21.46;65.26
11525;BME280;5819;49.648;8.330;2022-07-25T01:14:08;99953.41;;;21.43;65.41
11525;BME280;5819;49.648;8.330;2022-07-25T01:16:36;99956.09;;;21.34;66.42
11525;BME280;5819;49.648;8.330;2022-07-25T01:19:06;99950.66;;;21.35;66.39
11525;BME280;5819;49.648;8.330;2022-07-25T01:21:38;99950.75;;;21.53;65.60
11525;BME280;5819;49.648;8.330;2022-07-25T01:24:07;99953.47;;;21.24;66.39
11525;BME280;5819;49.648;8.330;2022-07-25T01:26:35;99952.63;;;21.33;66.21
11525;BME280;5819;49.648;8.330;2022-07-25T01:29:04;99947.16;;;21.35;65.16
11525;BME280;5819;49.648;8.330;2022-07-25T01:31:32;99947.34;;;21.24;66.37
11525;BME280;5819;49.648;8.330;2022-07-25T01:34:00;99940.81;;;20.99;68.50
11525;BME280;5819;49.648;8.330;2022-07-25T01:36:29;99947.78;;;21.00;68.73
11525;BME280;5819;49.648;8.330;2022-07-25T01:38:59;99944.56;;;21.16;67.99
11525;BME280;5819;49.648;8.330;2022-07-25T01:41:27;99946.91;;;21.38;66.94
11525;BME280;5819;49.648;8.330;2022-07-25T01:43:55;99948.53;;;21.39;66.89
11525;BME280;5819;49.648;8.330;2022-07-25T01:46:24;99948.28;;;21.42;66.34
11525;BME280;5819;49.648;8.330;2022-07-25T01:48:52;99952.88;;;21.40;65.88
11525;BME280;5819;49.648;8.330;2022-07-25T01:51:20;99947.09;;;21.17;65.35
11525;BME280;5819;49.648;8.330;2022-07-25T01:53:52;99949.72;;;21.17;65.29
11525;BME280;5819;49.648;8.330;2022-07-25T01:56:21;99960.69;;;21.32;65.40
11525;BME280;5819;49.648;8.330;2022-07-25T01:58:49;99953.59;;;21.42;64.72
11525;BME280;5819;49.648;8.330;2022-07-25T02:01:17;99949.28;;;21.31;65.00
11525;BME280;5819;49.648;8.330;2022-07-25T02:03:49;99951.91;;;21.31;64.67
11525;BME280;5819;49.648;8.330;2022-07-25T02:06:17;99932.28;;;21.34;64.73
11525;BME280;5819;49.648;8.330;2022-07-25T02:08:47;99938.56;;;21.33;64.42
11525;BME280;5819;49.648;8.330;2022-07-25T02:11:15;99940.53;;;21.21;64.80
11525;BME280;5819;49.648;8.330;2022-07-25T02:13:45;99935.78;;;21.25;64.92
11525;BME280;5819;49.648;8.330;2022-07-25T02:16:13;99930.63;;;21.23;65.06
11525;BME280;5819;49.648;8.330;2022-07-25T02:18:41;99926.75;;;20.98;66.00
11525;BME280;5819;49.648;8.330;2022-07-25T02:21:09;99918.84;;;20.89;67.00
11525;BME280;5819;49.648;8.330;2022-07-25T02:23:41;99926.47;;;20.92;67.03
11525;BME280;5819;49.648;8.330;2022-07-25T02:26:09;99919.53;;;20.81;68.25
11525;BME280;5819;49.648;8.330;2022-07-25T02:28:37;99910.78;;;20.81;68.91
11525;BME280;5819;49.648;8.330;2022-07-25T02:31:07;99913.69;;;20.87;68.45
11525;BME280;5819;49.648;8.330;2022-07-25T02:33:36;99919.25;;;20.84;69.00
11525;BME280;5819;49.648;8.330;2022-07-25T02:36:05;99912.72;;;20.88;69.77
11525;BME280;5819;49.648;8.330;2022-07-25T02:38:33;99913.09;;;21.03;69.50
11525;BME280;5819;49.648;8.330;2022-07-25T02:41:02;99916.88;;;21.10;70.00
11525;BME280;5819;49.648;8.330;2022-07-25T02:43:30;99918.25;;;21.05;70.51
11525;BME280;5819;49.648;8.330;2022-07-25T02:45:58;99908.53;;;20.95;71.63
11525;BME280;5819;49.648;8.330;2022-07-25T02:48:28;99899.63;;;20.96;72.03
11525;BME280;5819;49.648;8.330;2022-07-25T02:50:56;99900.88;;;20.92;72.47
11525;BME280;5819;49.648;8.330;2022-07-25T02:53:24;99897.66;;;20.98;72.04
11525;BME280;5819;49.648;8.330;2022-07-25T02:56:11;99901.00;;;21.00;71.53
11525;BME280;5819;49.648;8.330;2022-07-25T02:58:40;99900.88;;;21.12;71.32
11525;BME280;5819;49.648;8.330;2022-07-25T03:01:08;99902.94;;;20.98;72.58
11525;BME280;5819;49.648;8.330;2022-07-25T03:03:38;99899.50;;;20.98;72.37
11525;BME280;5819;49.648;8.330;2022-07-25T03:06:06;99906.59;;;20.97;72.27
11525;BME280;5819;49.648;8.330;2022-07-25T03:08:34;99906.03;;;20.84;69.44
11525;BME280;5819;49.648;8.330;2022-07-25T03:11:02;99904.50;;;20.63;69.05
11525;BME280;5819;49.648;8.330;2022-07-25T03:13:30;99905.50;;;20.52;69.82
11525;BME280;5819;49.648;8.330;2022-07-25T03:15:59;99904.69;;;20.42;70.73
11525;BME280;5819;49.648;8.330;2022-07-25T03:18:27;99913.28;;;20.44;71.18
11525;BME280;5819;49.648;8.330;2022-07-25T03:20:57;99908.00;;;20.44;71.39
11525;BME280;5819;49.648;8.330;2022-07-25T03:23:25;99915.81;;;20.45;72.09
11525;BME280;5819;49.648;8.330;2022-07-25T03:25:54;99902.44;;;20.47;72.64
11525;BME280;5819;49.648;8.330;2022-07-25T03:28:22;99898.81;;;20.38;72.55
11525;BME280;5819;49.648;8.330;2022-07-25T03:30:51;99898.00;;;20.38;72.78
11525;BME280;5819;49.648;8.330;2022-07-25T03:33:19;99903.75;;;20.03;71.72
11525;BME280;5819;49.648;8.330;2022-07-25T03:35:47;99902.81;;;20.14;73.74
11525;BME280;5819;49.648;8.330;2022-07-25T03:38:17;99894.88;;;20.23;73.32
11525;BME280;5819;49.648;8.330;2022-07-25T03:40:45;99895.84;;;20.22;73.62
11525;BME280;5819;49.648;8.330;2022-07-25T03:43:13;99898.81;;;20.29;73.20
11525;BME280;5819;49.648;8.330;2022-07-25T03:45:41;99893.81;;;20.35;74.16
11525;BME280;5819;49.648;8.330;2022-07-25T03:48:09;99887.97;;;20.41;74.46
11525;BME280;5819;49.648;8.330;2022-07-25T03:50:38;99890.06;;;20.47;73.92
11525;BME280;5819;49.648;8.330;2022-07-25T03:53:06;99883.09;;;20.56;74.18
11525;BME280;5819;49.648;8.330;2022-07-25T03:55:37;99893.69;;;20.56;74.22
11525;BME280;5819;49.648;8.330;2022-07-25T03:58:06;99889.78;;;20.50;74.08
11525;BME280;5819;49.648;8.330;2022-07-25T04:00:34;99887.16;;;20.41;74.11
11525;BME280;5819;49.648;8.330;2022-07-25T04:03:03;99896.41;;;20.16;73.90
11525;BME280;5819;49.648;8.330;2022-07-25T04:05:31;99899.88;;;20.17;74.51
11525;BME280;5819;49.648;8.330;2022-07-25T04:07:59;99892.66;;;20.28;74.85
11525;BME280;5819;49.648;8.330;2022-07-25T04:10:27;99890.41;;;20.14;73.99
11525;BME280;5819;49.648;8.330;2022-07-25T04:12:57;99884.94;;;19.87;73.57
11525;BME280;5819;49.648;8.330;2022-07-25T04:15:25;99873.97;;;19.82;73.98
11525;BME280;5819;49.648;8.330;2022-07-25T04:17:55;99873.94;;;19.72;74.37
11525;BME280;5819;49.648;8.330;2022-07-25T04:20:23;99870.06;;;19.76;74.93
11525;BME280;5819;49.648;8.330;2022-07-25T04:22:51;99872.31;;;19.81;75.22
11525;BME280;5819;49.648;8.330;2022-07-25T04:25:19;99876.75;;;19.80;75.93
11525;BME280;5819;49.648;8.330;2022-07-25T04:27:47;99872.97;;;19.83;75.55
11525;BME280;5819;49.648;8.330;2022-07-25T04:30:16;99869.78;;;19.79;75.17
11525;BME280;5819;49.648;8.330;2022-07-25T04:32:50;99870.22;;;19.84;75.77
11525;BME280;5819;49.648;8.330;2022-07-25T04:35:19;99862.19;;;19.86;75.52
11525;BME280;5819;49.648;8.330;2022-07-25T04:37:47;99864.38;;;19.81;76.24
11525;BME280;5819;49.648;8.330;2022-07-25T04:40:16;99859.53;;;19.95;75.90
11525;BME280;5819;49.648;8.330;2022-07-25T04:42:44;99853.97;;;19.98;76.08
11525;BME280;5819;49.648;8.330;2022-07-25T04:45:12;99857.75;;;20.15;75.79
11525;BME280;5819;49.648;8.330;2022-07-25T04:47:45;99854.97;;;20.26;75.76
11525;BME280;5819;49.648;8.330;2022-07-25T04:50:14;99855.00;;;20.36;76.55
11525;BME280;5819;49.648;8.330;2022-07-25T04:52:47;99859.31;;;20.46;76.27
11525;BME280;5819;49.648;8.330;2022-07-25T04:55:15;99849.28;;;20.60;75.50
11525;BME280;5819;49.648;8.330;2022-07-25T04:57:43;99857.91;;;20.71;74.85
11525;BME280;5819;49.648;8.330;2022-07-25T05:00:13;99854.16;;;20.74;74.89
11525;BME280;5819;49.648;8.330;2022-07-25T05:02:42;99856.09;;;20.81;74.80
11525;BME280;5819;49.648;8.330;2022-07-25T05:05:12;99852.31;;;20.93;75.28
11525;BME280;5819;49.648;8.330;2022-07-25T05:07:48;99849.63;;;21.03;75.17
11525;BME280;5819;49.648;8.330;2022-07-25T05:10:16;99855.19;;;21.10;75.26
11525;BME280;5819;49.648;8.330;2022-07-25T05:12:45;99853.38;;;21.10;75.87
11525;BME280;5819;49.648;8.330;2022-07-25T05:15:13;99858.94;;;21.17;75.78
11525;BME280;5819;49.648;8.330;2022-07-25T05:17:42;99859.78;;;21.17;75.16
11525;BME280;5819;49.648;8.330;2022-07-25T05:20:12;99861.94;;;21.31;73.54
11525;BME280;5819;49.648;8.330;2022-07-25T05:22:41;99862.44;;;21.44;73.05
11525;BME280;5819;49.648;8.330;2022-07-25T05:25:10;99853.38;;;21.47;72.34
11525;BME280;5819;49.648;8.330;2022-07-25T05:27:38;99849.53;;;21.69;70.89
11525;BME280;5819;49.648;8.330;2022-07-25T05:30:08;99847.31;;;21.64;71.24
11525;BME280;5819;49.648;8.330;2022-07-25T05:32:36;99843.69;;;21.65;72.04
11525;BME280;5819;49.648;8.330;2022-07-25T05:35:07;99842.06;;;21.82;70.34
11525;BME280;5819;49.648;8.330;2022-07-25T05:37:37;99839.97;;;22.03;70.06
11525;BME280;5819;49.648;8.330;2022-07-25T05:40:06;99842.47;;;22.05;70.14
11525;BME280;5819;49.648;8.330;2022-07-25T05:42:34;99828.41;;;22.04;70.34
11525;BME280;5819;49.648;8.330;2022-07-25T05:45:02;99825.97;;;22.11;70.32
11525;BME280;5819;49.648;8.330;2022-07-25T05:47:30;99823.78;;;22.24;69.57
11525;BME280;5819;49.648;8.330;2022-07-25T05:49:59;99832.31;;;22.35;69.40
11525;BME280;5819;49.648;8.330;2022-07-25T05:52:28;99826.81;;;22.47;69.08
11525;BME280;5819;49.648;8.330;2022-07-25T05:54:58;99824.44;;;22.61;68.76
11525;BME280;5819;49.648;8.330;2022-07-25T05:57:27;99827.06;;;22.79;68.26
11525;BME280;5819;49.648;8.330;2022-07-25T05:59:55;99821.03;;;22.95;67.67
11525;BME280;5819;49.648;8.330;2022-07-25T06:02:23;99822.53;;;22.97;67.84
11525;BME280;5819;49.648;8.330;2022-07-25T06:04:52;99825.84;;;22.99;68.41
11525;BME280;5819;49.648;8.330;2022-07-25T06:07:20;99818.22;;;22.96;68.35
11525;BME280;5819;49.648;8.330;2022-07-25T06:09:48;99817.78;;;23.09;67.69
11525;BME280;5819;49.648;8.330;2022-07-25T06:12:17;99816.56;;;23.29;66.94
11525;BME280;5819;49.648;8.330;2022-07-25T06:14:50;99814.09;;;23.36;66.76
11525;BME280;5819;49.648;8.330;2022-07-25T06:17:18;99803.97;;;23.39;66.68
11525;BME280;5819;49.648;8.330;2022-07-25T06:19:45;99812.38;;;23.52;65.87
11525;BME280;5819;49.648;8.330;2022-07-25T06:22:14;99811.75;;;23.58;66.31
11525;BME280;5819;49.648;8.330;2022-07-25T06:24:42;99808.41;;;23.64;66.15
11525;BME280;5819;49.648;8.330;2022-07-25T06:27:10;99806.16;;;23.86;65.87
11525;BME280;5819;49.648;8.330;2022-07-25T06:29:45;99806.00;;;23.87;65.82
11525;BME280;5819;49.648;8.330;2022-07-25T06:32:13;99805.31;;;23.77;66.21
11525;BME280;5819;49.648;8.330;2022-07-25T06:34:41;99804.66;;;23.83;66.39
11525;BME280;5819;49.648;8.330;2022-07-25T06:37:09;99803.91;;;24.15;65.29
11525;BME280;5819;49.648;8.330;2022-07-25T06:39:37;99800.03;;;24.01;66.14
11525;BME280;5819;49.648;8.330;2022-07-25T06:42:11;99805.91;;;24.21;65.29
11525;BME280;5819;49.648;8.330;2022-07-25T06:44:39;99800.41;;;24.14;66.36
11525;BME280;5819;49.648;8.330;2022-07-25T06:47:08;99804.22;;;24.28;65.30
11525;BME280;5819;49.648;8.330;2022-07-25T06:49:38;99804.72;;;24.23;65.77
11525;BME280;5819;49.648;8.330;2022-07-25T06:52:07;99801.56;;;24.28;66.23
11525;BME280;5819;49.648;8.330;2022-07-25T06:54:35;99802.59;;;24.27;65.98
11525;BME280;5819;49.648;8.330;2022-07-25T06:57:03;99789.28;;;24.35;65.52
11525;BME280;5819;49.648;8.330;2022-07-25T06:59:31;99794.91;;;24.40;65.33
11525;BME280;5819;49.648;8.330;2022-07-25T07:01:59;99794.75;;;24.50;65.44
11525;BME280;5819;49.648;8.330;2022-07-25T07:04:29;99797.41;;;24.58;65.76
11525;BME280;5819;49.648;8.330;2022-07-25T07:06:57;99797.56;;;24.64;64.60
11525;BME280;5819;49.648;8.330;2022-07-25T07:09:24;99797.06;;;24.69;65.35
11525;BME280;5819;49.648;8.330;2022-07-25T07:11:52;99796.69;;;24.80;64.25
11525;BME280;5819;49.648;8.330;2022-07-25T07:14:21;99792.91;;;24.91;64.82
11525;BME280;5819;49.648;8.330;2022-07-25T07:16:49;99799.84;;;25.00;64.53
11525;BME280;5819;49.648;8.330;2022-07-25T07:19:17;99797.97;;;25.08;64.16
11525;BME280;5819;49.648;8.330;2022-07-25T07:21:47;99794.78;;;25.21;63.78
11525;BME280;5819;49.648;8.330;2022-07-25T07:24:17;99794.72;;;25.37;62.43
11525;BME280;5819;49.648;8.330;2022-07-25T07:26:51;99791.00;;;25.54;62.58
11525;BME280;5819;49.648;8.330;2022-07-25T07:29:19;99789.66;;;25.58;62.58
11525;BME280;5819;49.648;8.330;2022-07-25T07:31:47;99794.31;;;25.56;62.15
11525;BME280;5819;49.648;8.330;2022-07-25T07:34:15;99791.75;;;25.71;61.23
11525;BME280;5819;49.648;8.330;2022-07-25T07:36:43;99789.94;;;25.94;60.18
11525;BME280;5819;49.648;8.330;2022-07-25T07:39:13;99780.97;;;26.10;60.41
11525;BME280;5819;49.648;8.330;2022-07-25T07:41:43;99784.53;;;26.02;60.21
11525;BME280;5819;49.648;8.330;2022-07-25T07:44:11;99780.97;;;26.10;59.70
11525;BME280;5819;49.648;8.330;2022-07-25T07:46:39;99777.22;;;26.27;59.62
11525;BME280;5819;49.648;8.330;2022-07-25T07:49:10;99776.16;;;26.51;58.50
11525;BME280;5819;49.648;8.330;2022-07-25T07:51:38;99778.56;;;26.61;58.29
11525;BME280;5819;49.648;8.330;2022-07-25T07:54:06;99771.69;;;26.29;59.10
11525;BME280;5819;49.648;8.330;2022-07-25T07:56:53;99767.34;;;26.50;58.90
11525;BME280;5819;49.648;8.330;2022-07-25T07:59:21;99775.19;;;26.81;57.54
11525;BME280;5819;49.648;8.330;2022-07-25T08:01:49;99783.13;;;26.89;56.82
11525;BME280;5819;49.648;8.330;2022-07-25T08:04:19;99793.47;;;27.07;55.30
11525;BME280;5819;49.648;8.330;2022-07-25T08:06:48;99786.19;;;27.16;54.86
11525;BME280;5819;49.648;8.330;2022-07-25T08:09:16;99785.22;;;27.38;54.88
11525;BME280;5819;49.648;8.330;2022-07-25T08:11:44;99789.56;;;27.54;54.68
11525;BME280;5819;49.648;8.330;2022-07-25T08:14:13;99781.59;;;27.75;54.81
11525;BME280;5819;49.648;8.330;2022-07-25T08:16:41;99783.75;;;27.86;54.15
11525;BME280;5819;49.648;8.330;2022-07-25T08:19:10;99779.16;;;28.16;53.66
11525;BME280;5819;49.648;8.330;2022-07-25T08:21:38;99793.44;;;28.29;51.81
11525;BME280;5819;49.648;8.330;2022-07-25T08:24:07;99774.53;;;28.31;52.09
11525;BME280;5819;49.648;8.330;2022-07-25T08:26:37;99781.84;;;28.44;52.10
11525;BME280;5819;49.648;8.330;2022-07-25T08:29:05;99777.69;;;28.41;51.71
11525;BME280;5819;49.648;8.330;2022-07-25T08:31:55;99771.22;;;28.57;52.30
11525;BME280;5819;49.648;8.330;2022-07-25T08:34:23;99772.69;;;28.59;52.56
11525;BME280;5819;49.648;8.330;2022-07-25T08:36:52;99762.78;;;28.81;51.95
11525;BME280;5819;49.648;8.330;2022-07-25T08:39:20;99764.88;;;28.86;51.59
11525;BME280;5819;49.648;8.330;2022-07-25T08:41:48;99768.81;;;28.90;51.63
11525;BME280;5819;49.648;8.330;2022-07-25T08:44:18;99770.06;;;28.94;51.39
11525;BME280;5819;49.648;8.330;2022-07-25T08:46:47;99770.22;;;28.86;51.50
11525;BME280;5819;49.648;8.330;2022-07-25T08:49:18;99755.50;;;29.03;50.81
11525;BME280;5819;49.648;8.330;2022-07-25T08:51:47;99753.16;;;28.93;52.00
11525;BME280;5819;49.648;8.330;2022-07-25T08:54:17;99753.50;;;29.18;51.55
11525;BME280;5819;49.648;8.330;2022-07-25T08:56:48;99756.41;;;29.16;51.69
11525;BME280;5819;49.648;8.330;2022-07-25T08:59:16;99753.91;;;29.21;51.34
11525;BME280;5819;49.648;8.330;2022-07-25T09:01:44;99750.53;;;29.41;50.95
11525;BME280;5819;49.648;8.330;2022-07-25T09:04:13;99747.50;;;29.70;50.12
11525;BME280;5819;49.648;8.330;2022-07-25T09:06:49;99738.09;;;29.94;50.03
11525;BME280;5819;49.648;8.330;2022-07-25T09:09:18;99740.16;;;30.18;49.30
11525;BME280;5819;49.648;8.330;2022-07-25T09:11:46;99736.47;;;30.32;48.43
11525;BME280;5819;49.648;8.330;2022-07-25T09:14:15;99726.13;;;30.42;48.78
11525;BME280;5819;49.648;8.330;2022-07-25T09:16:44;99719.28;;;30.66;48.33
11525;BME280;5819;49.648;8.330;2022-07-25T09:19:14;99716.13;;;30.95;47.43
11525;BME280;5819;49.648;8.330;2022-07-25T09:21:45;99721.44;;;31.15;47.67
11525;BME280;5819;49.648;8.330;2022-07-25T09:24:30;99718.09;;;31.26;47.04
11525;BME280;5819;49.648;8.330;2022-07-25T09:27:00;99712.00;;;31.44;46.96
11525;BME280;5819;49.648;8.330;2022-07-25T09:29:30;99702.84;;;31.58;46.89
11525;BME280;5819;49.648;8.330;2022-07-25T09:32:00;99709.03;;;31.90;46.71
11525;BME280;5819;49.648;8.330;2022-07-25T09:34:30;99710.66;;;32.22;45.08
11525;BME280;5819;49.648;8.330;2022-07-25T09:37:01;99702.25;;;32.37;45.63
11525;BME280;5819;49.648;8.330;2022-07-25T09:39:36;99699.34;;;32.57;44.64
11525;BME280;5819;49.648;8.330;2022-07-25T09:42:17;99706.16;;;32.59;45.22
11525;BME280;5819;49.648;8.330;2022-07-25T09:45:02;99705.16;;;32.97;43.29
11525;BME280;5819;49.648;8.330;2022-07-25T09:47:33;99694.31;;;33.21;43.71
11525;BME280;5819;49.648;8.330;2022-07-25T09:50:02;99700.41;;;33.10;43.45
11525;BME280;5819;49.648;8.330;2022-07-25T09:52:31;99701.19;;;33.17;42.77
11525;BME280;5819;49.648;8.330;2022-07-25T09:55:03;99698.09;;;33.62;42.25
11525;BME280;5819;49.648;8.330;2022-07-25T09:57:32;99691.03;;;34.02;41.14
11525;BME280;5819;49.648;8.330;2022-07-25T10:00:00;99695.63;;;34.02;41.22
11525;BME280;5819;49.648;8.330;2022-07-25T10:02:47;99693.53;;;34.27;40.17
11525;BME280;5819;49.648;8.330;2022-07-25T10:05:22;99688.34;;;35.23;39.23
11525;BME280;5819;49.648;8.330;2022-07-25T10:07:55;99680.50;;;36.67;36.94
11525;BME280;5819;49.648;8.330;2022-07-25T10:10:29;99678.38;;;37.66;34.65
11525;BME280;5819;49.648;8.330;2022-07-25T10:13:02;99674.16;;;37.80;34.58
11525;BME280;5819;49.648;8.330;2022-07-25T10:15:47;99674.56;;;38.31;33.58
11525;BME280;5819;49.648;8.330;2022-07-25T10:18:17;99671.75;;;38.16;33.74
11525;BME280;5819;49.648;8.330;2022-07-25T10:20:47;99674.56;;;40.06;30.19
11525;BME280;5819;49.648;8.330;2022-07-25T10:23:19;99668.00;;;41.61;29.53
11525;BME280;5819;49.648;8.330;2022-07-25T10:26:00;99666.97;;;41.51;29.10
11525;BME280;5819;49.648;8.330;2022-07-25T10:28:40;99665.41;;;40.81;29.38
11525;BME280;5819;49.648;8.330;2022-07-25T10:31:17;99660.50;;;40.83;28.97
11525;BME280;5819;49.648;8.330;2022-07-25T10:33:55;99658.19;;;41.10;28.86
11525;BME280;5819;49.648;8.330;2022-07-25T10:36:24;99656.50;;;40.60;28.95
11525;BME280;5819;49.648;8.330;2022-07-25T10:38:59;99641.84;;;39.30;30.05
11525;BME280;5819;49.648;8.330;2022-07-25T10:41:29;99641.28;;;38.61;31.66
11525;BME280;5819;49.648;8.330;2022-07-25T10:43:59;99641.91;;;37.57;32.67
11525;BME280;5819;49.648;8.330;2022-07-25T10:46:34;99638.41;;;38.30;31.51
11525;BME280;5819;49.648;8.330;2022-07-25T10:49:03;99638.72;;;38.39;31.07
11525;BME280;5819;49.648;8.330;2022-07-25T10:51:35;99634.75;;;38.10;31.98
11525;BME280;5819;49.648;8.330;2022-07-25T10:54:12;99630.84;;;39.05;31.03
11525;BME280;5819;49.648;8.330;2022-07-25T10:56:52;99642.69;;;39.81;30.61
11525;BME280;5819;49.648;8.330;2022-07-25T10:59:30;99638.16;;;40.71;29.48
11525;BME280;5819;49.648;8.330;2022-07-25T11:01:59;99629.03;;;40.32;30.22
11525;BME280;5819;49.648;8.330;2022-07-25T11:04:27;99622.78;;;39.30;30.80
11525;BME280;5819;49.648;8.330;2022-07-25T11:06:56;99627.00;;;37.60;33.06
11525;BME280;5819;49.648;8.330;2022-07-25T11:09:26;99623.44;;;37.27;33.84
11525;BME280;5819;49.648;8.330;2022-07-25T11:11:57;99621.94;;;36.93;33.99
11525;BME280;5819;49.648;8.330;2022-07-25T11:14:28;99604.50;;;37.64;34.13
11525;BME280;5819;49.648;8.330;2022-07-25T11:17:12;99616.00;;;37.18;32.80
11525;BME280;5819;49.648;8.330;2022-07-25T11:19:42;99616.59;;;36.76;34.67
11525;BME280;5819;49.648;8.330;2022-07-25T11:22:11;99610.44;;;37.61;33.29
11525;BME280;5819;49.648;8.330;2022-07-25T11:24:40;99619.53;;;39.99;29.85
11525;BME280;5819;49.648;8.330;2022-07-25T11:27:12;99613.22;;;40.18;29.23
11525;BME280;5819;49.648;8.330;2022-07-25T11:29:47;99616.25;;;38.07;32.21
11525;BME280;5819;49.648;8.330;2022-07-25T11:32:15;99617.13;;;38.69;31.75
11525;BME280;5819;49.648;8.330;2022-07-25T11:34:47;99615.25;;;37.86;33.53
11525;BME280;5819;49.648;8.330;2022-07-25T11:37:18;99619.13;;;36.61;32.13
11525;BME280;5819;49.648;8.330;2022-07-25T11:39:47;99630.72;;;36.01;32.64
11525;BME280;5819;49.648;8.330;2022-07-25T11:42:24;99632.63;;;35.39;33.64
11525;BME280;5819;49.648;8.330;2022-07-25T11:44:55;99635.72;;;35.03;34.42
11525;BME280;5819;49.648;8.330;2022-07-25T11:47:26;99640.41;;;34.56;33.63
11525;BME280;5819;49.648;8.330;2022-07-25T11:49:56;99641.13;;;34.05;34.87
11525;BME280;5819;49.648;8.330;2022-07-25T11:52:27;99649.09;;;33.88;35.37
11525;BME280;5819;49.648;8.330;2022-07-25T11:54:58;99647.25;;;34.12;35.59
11525;BME280;5819;49.648;8.330;2022-07-25T11:57:30;99649.50;;;35.01;34.43
11525;BME280;5819;49.648;8.330;2022-07-25T11:59:58;99647.28;;;35.55;33.31
11525;BME280;5819;49.648;8.330;2022-07-25T12:02:34;99644.16;;;37.65;30.26
11525;BME280;5819;49.648;8.330;2022-07-25T12:05:05;99643.69;;;38.05;29.98
11525;BME280;5819;49.648;8.330;2022-07-25T12:07:35;99648.84;;;38.44;29.85
11525;BME280;5819;49.648;8.330;2022-07-25T12:10:06;99641.31;;;39.89;28.98
11525;BME280;5819;49.648;8.330;2022-07-25T12:12:44;99630.69;;;39.57;27.84
11525;BME280;5819;49.648;8.330;2022-07-25T12:15:16;99629.88;;;37.80;29.66
11525;BME280;5819;49.648;8.330;2022-07-25T12:17:45;99634.25;;;39.72;28.56
11525;BME280;5819;49.648;8.330;2022-07-25T12:20:14;99626.47;;;37.94;30.01
11525;BME280;5819;49.648;8.330;2022-07-25T12:22:43;99617.25;;;36.45;31.67
11525;BME280;5819;49.648;8.330;2022-07-25T12:25:11;99613.59;;;35.62;32.83
11525;BME280;5819;49.648;8.330;2022-07-25T12:27:40;99604.00;;;34.98;33.92
11525;BME280;5819;49.648;8.330;2022-07-25T12:30:12;99596.22;;;34.62;35.09
11525;BME280;5819;49.648;8.330;2022-07-25T12:32:41;99598.34;;;34.60;34.40
11525;BME280;5819;49.648;8.330;2022-07-25T12:35:11;99590.19;;;34.20;35.67
11525;BME280;5819;49.648;8.330;2022-07-25T12:37:40;99594.28;;;34.11;34.54
11525;BME280;5819;49.648;8.330;2022-07-25T12:40:11;99599.81;;;34.04;35.50
11525;BME280;5819;49.648;8.330;2022-07-25T12:42:40;99598.88;;;35.13;34.38
11525;BME280;5819;49.648;8.330;2022-07-25T12:45:10;99592.53;;;35.08;34.17
11525;BME280;5819;49.648;8.330;2022-07-25T12:47:41;99595.16;;;35.48;34.30
11525;BME280;5819;49.648;8.330;2022-07-25T12:50:10;99588.94;;;36.14;32.69
11525;BME280;5819;49.648;8.330;2022-07-25T12:52:39;99597.47;;;35.56;34.33
11525;BME280;5819;49.648;8.330;2022-07-25T12:55:10;99601.59;;;34.85;35.41
11525;BME280;5819;49.648;8.330;2022-07-25T12:57:39;99592.44;;;35.03;35.71
11525;BME280;5819;49.648;8.330;2022-07-25T13:00:11;99586.69;;;34.99;36.20
11525;BME280;5819;49.648;8.330;2022-07-25T13:02:40;99586.03;;;34.92;36.03
11525;BME280;5819;49.648;8.330;2022-07-25T13:05:09;99585.53;;;34.95;35.10
11525;BME280;5819;49.648;8.330;2022-07-25T13:07:39;99589.66;;;34.98;35.39
11525;BME280;5819;49.648;8.330;2022-07-25T13:10:09;99585.09;;;34.98;35.02
11525;BME280;5819;49.648;8.330;2022-07-25T13:12:38;99583.16;;;34.99;35.06
11525;BME280;5819;49.648;8.330;2022-07-25T13:15:07;99582.16;;;34.48;35.83
11525;BME280;5819;49.648;8.330;2022-07-25T13:17:36;99594.19;;;34.29;35.96
11525;BME280;5819;49.648;8.330;2022-07-25T13:20:07;99594.66;;;34.14;36.00
11525;BME280;5819;49.648;8.330;2022-07-25T13:22:35;99593.03;;;33.90;35.97
11525;BME280;5819;49.648;8.330;2022-07-25T13:25:05;99591.38;;;33.66;36.18